sensor_id;sensor_type;location;lat;lon;timestamp;P1;durP1;ratioP1;P2;durP2;ratioP2
20557;SDS011;10437;48.156;11.530;2022-08-19T00:01:35;5.18;;;4.00;;
20557;SDS011;10437;48.156;11.530;2022-08-19T00:04:04;5.00;;;3.75;;
20557;SDS011;10437;48.156;11.530;2022-08-19T00:06:33;6.85;;;4.07;;
20557;SDS011;10437;48.156;11.530;2022-08-19T00:09:00;5.78;;;4.22;;
20557;SDS011;10437;48.156;11.530;2022-08-19T00:11:31;7.25;;;4.30;;
20557;SDS011;10437;48.156;11.530;2022-08-19T00:13:59;6.00;;;4.47;;
20557;SDS011;10437;48.156;11.530;2022-08-19T00:16:26;7.03;;;4.57;;
20557;SDS011;10437;48.156;11.530;2022-08-19T00:18:55;7.85;;;4.38;;
20557;SDS011;10437;48.156;11.530;2022-08-19T00:21:23;7.13;;;4.03;;
20557;SDS011;10437;48.156;11.530;2022-08-19T00:23:51;5.85;;;4.57;;
20557;SDS011;10437;48.156;11.530;2022-08-19T00:26:19;7.30;;;4.57;;
20557;SDS011;10437;48.156;11.530;2022-08-19T00:28:46;7.03;;;4.82;;
20557;SDS011;10437;48.156;11.530;2022-08-19T00:31:13;6.88;;;4.78;;
20557;SDS011;10437;48.156;11.530;2022-08-19T00:33:41;8.05;;;4.65;;
20557;SDS011;10437;48.156;11.530;2022-08-19T00:36:10;6.22;;;4.85;;
20557;SDS011;10437;48.156;11.530;2022-08-19T00:38:38;6.28;;;4.80;;
20557;SDS011;10437;48.156;11.530;2022-08-19T00:41:08;6.72;;;5.20;;
20557;SDS011;10437;48.156;11.530;2022-08-19T00:43:35;7.88;;;5.60;;
20557;SDS011;10437;48.156;11.530;2022-08-19T00:46:03;7.70;;;5.25;;
20557;SDS011;10437;48.156;11.530;2022-08-19T00:48:31;6.60;;;4.85;;
20557;SDS011;10437;48.156;11.530;2022-08-19T00:50:59;7.35;;;5.47;;
20557;SDS011;10437;48.156;11.530;2022-08-19T00:53:28;9.32;;;5.65;;
20557;SDS011;10437;48.156;11.530;2022-08-19T00:55:59;7.38;;;5.07;;
20557;SDS011;10437;48.156;11.530;2022-08-19T00:58:32;8.20;;;5.38;;
20557;SDS011;10437;48.156;11.530;2022-08-19T01:01:01;9.18;;;5.97;;
20557;SDS011;10437;48.156;11.530;2022-08-19T01:05:59;9.60;;;6.18;;
20557;SDS011;10437;48.156;11.530;2022-08-19T01:08:26;9.55;;;5.78;;
20557;SDS011;10437;48.156;11.530;2022-08-19T01:10:55;11.80;;;6.32;;
20557;SDS011;10437;48.156;11.530;2022-08-19T01:13:27;8.38;;;5.65;;
20557;SDS011;10437;48.156;11.530;2022-08-19T01:15:57;10.05;;;6.57;;
20557;SDS011;10437;48.156;11.530;2022-08-19T01:18:29;10.05;;;6.32;;
20557;SDS011;10437;48.156;11.530;2022-08-19T01:20:58;9.45;;;6.20;;
20557;SDS011;10437;48.156;11.530;2022-08-19T01:23:30;9.77;;;6.20;;
20557;SDS011;10437;48.156;11.530;2022-08-19T01:26:09;9.18;;;6.72;;
20557;SDS011;10437;48.156;11.530;2022-08-19T01:28:38;11.57;;;6.75;;
20557;SDS011;10437;48.156;11.530;2022-08-19T01:31:06;11.40;;;7.45;;
20557;SDS011;10437;48.156;11.530;2022-08-19T01:33:36;12.32;;;8.23;;
20557;SDS011;10437;48.156;11.530;2022-08-19T01:36:05;12.07;;;8.05;;
20557;SDS011;10437;48.156;11.530;2022-08-19T01:38:37;12.55;;;7.88;;
20557;SDS011;10437;48.156;11.530;2022-08-19T01:41:06;15.00;;;8.05;;
20557;SDS011;10437;48.156;11.530;2022-08-19T01:43:33;13.85;;;8.18;;
20557;SDS011;10437;48.156;11.530;2022-08-19T01:46:01;11.90;;;8.38;;
20557;SDS011;10437;48.156;11.530;2022-08-19T01:48:32;11.52;;;7.60;;
20557;SDS011;10437;48.156;11.530;2022-08-19T01:51:00;12.52;;;8.00;;
20557;SDS011;10437;48.156;11.530;2022-08-19T01:53:27;10.82;;;7.50;;
20557;SDS011;10437;48.156;11.530;2022-08-19T01:55:56;14.75;;;8.63;;
20557;SDS011;10437;48.156;11.530;2022-08-19T01:58:24;11.65;;;7.95;;
20557;SDS011;10437;48.156;11.530;2022-08-19T02:00:58;12.32;;;7.60;;
20557;SDS011;10437;48.156;11.530;2022-08-19T02:03:25;12.77;;;7.43;;
20557;SDS011;10437;48.156;11.530;2022-08-19T02:05:56;11.43;;;7.07;;
20557;SDS011;10437;48.156;11.530;2022-08-19T02:08:24;12.32;;;7.78;;
20557;SDS011;10437;48.156;11.530;2022-08-19T02:10:52;10.27;;;6.88;;
20557;SDS011;10437;48.156;11.530;2022-08-19T02:13:21;12.45;;;7.70;;
20557;SDS011;10437;48.156;11.530;2022-08-19T02:15:48;10.55;;;7.05;;
20557;SDS011;10437;48.156;11.530;2022-08-19T02:18:15;10.07;;;6.78;;
20557;SDS011;10437;48.156;11.530;2022-08-19T02:20:43;10.75;;;6.65;;
20557;SDS011;10437;48.156;11.530;2022-08-19T02:23:12;11.40;;;6.78;;
20557;SDS011;10437;48.156;11.530;2022-08-19T02:25:40;9.00;;;6.57;;
20557;SDS011;10437;48.156;11.530;2022-08-19T02:28:07;11.90;;;6.60;;
20557;SDS011;10437;48.156;11.530;2022-08-19T02:30:36;8.07;;;6.20;;
20557;SDS011;10437;48.156;11.530;2022-08-19T02:33:04;10.70;;;6.28;;
20557;SDS011;10437;48.156;11.530;2022-08-19T02:35:31;8.95;;;6.55;;
20557;SDS011;10437;48.156;11.530;2022-08-19T02:37:58;10.15;;;6.28;;
20557;SDS011;10437;48.156;11.530;2022-08-19T02:40:47;7.60;;;5.75;;
20557;SDS011;10437;48.156;11.530;2022-08-19T02:43:16;9.02;;;6.05;;
20557;SDS011;10437;48.156;11.530;2022-08-19T02:45:46;8.30;;;5.53;;
20557;SDS011;10437;48.156;11.530;2022-08-19T02:48:14;7.82;;;5.55;;
20557;SDS011;10437;48.156;11.530;2022-08-19T02:50:42;7.57;;;5.20;;
20557;SDS011;10437;48.156;11.530;2022-08-19T02:53:09;10.73;;;5.70;;
20557;SDS011;10437;48.156;11.530;2022-08-19T02:55:42;8.98;;;6.13;;
20557;SDS011;10437;48.156;11.530;2022-08-19T02:58:09;6.40;;;5.15;;
20557;SDS011;10437;48.156;11.530;2022-08-19T03:00:40;7.55;;;5.20;;
20557;SDS011;10437;48.156;11.530;2022-08-19T03:03:10;9.63;;;5.55;;
20557;SDS011;10437;48.156;11.530;2022-08-19T03:05:37;6.20;;;4.85;;
20557;SDS011;10437;48.156;11.530;2022-08-19T03:08:04;8.32;;;5.38;;
20557;SDS011;10437;48.156;11.530;2022-08-19T03:10:39;6.90;;;5.05;;
20557;SDS011;10437;48.156;11.530;2022-08-19T03:13:07;8.45;;;5.68;;
20557;SDS011;10437;48.156;11.530;2022-08-19T03:15:34;7.80;;;5.40;;
20557;SDS011;10437;48.156;11.530;2022-08-19T03:18:01;7.63;;;5.50;;
20557;SDS011;10437;48.156;11.530;2022-08-19T03:20:30;7.40;;;4.93;;
20557;SDS011;10437;48.156;11.530;2022-08-19T03:22:56;8.93;;;4.68;;
20557;SDS011;10437;48.156;11.530;2022-08-19T03:25:24;7.20;;;5.32;;
20557;SDS011;10437;48.156;11.530;2022-08-19T03:27:51;9.45;;;5.30;;
20557;SDS011;10437;48.156;11.530;2022-08-19T03:30:18;9.05;;;5.20;;
20557;SDS011;10437;48.156;11.530;2022-08-19T03:32:45;7.22;;;5.18;;
20557;SDS011;10437;48.156;11.530;2022-08-19T03:35:12;7.85;;;5.20;;
20557;SDS011;10437;48.156;11.530;2022-08-19T03:37:41;7.10;;;4.70;;
20557;SDS011;10437;48.156;11.530;2022-08-19T03:40:08;7.57;;;4.70;;
20557;SDS011;10437;48.156;11.530;2022-08-19T03:42:35;8.10;;;5.13;;
20557;SDS011;10437;48.156;11.530;2022-08-19T03:45:03;6.93;;;4.88;;
20557;SDS011;10437;48.156;11.530;2022-08-19T03:47:32;7.75;;;5.22;;
20557;SDS011;10437;48.156;11.530;2022-08-19T03:49:59;9.07;;;5.78;;
20557;SDS011;10437;48.156;11.530;2022-08-19T03:52:26;8.07;;;5.35;;
20557;SDS011;10437;48.156;11.530;2022-08-19T03:54:54;6.95;;;4.88;;
20557;SDS011;10437;48.156;11.530;2022-08-19T03:57:21;9.23;;;5.63;;
20557;SDS011;10437;48.156;11.530;2022-08-19T03:59:49;8.65;;;5.20;;
20557;SDS011;10437;48.156;11.530;2022-08-19T04:02:16;8.95;;;5.63;;
20557;SDS011;10437;48.156;11.530;2022-08-19T04:04:43;7.60;;;5.40;;
20557;SDS011;10437;48.156;11.530;2022-08-19T04:07:11;10.00;;;5.85;;
20557;SDS011;10437;48.156;11.530;2022-08-19T04:09:41;9.63;;;5.85;;
20557;SDS011;10437;48.156;11.530;2022-08-19T04:12:09;9.65;;;6.03;;
20557;SDS011;10437;48.156;11.530;2022-08-19T04:14:36;9.85;;;5.95;;
20557;SDS011;10437;48.156;11.530;2022-08-19T04:17:04;11.20;;;6.10;;
20557;SDS011;10437;48.156;11.530;2022-08-19T04:19:31;8.65;;;6.18;;
20557;SDS011;10437;48.156;11.530;2022-08-19T04:22:00;10.90;;;6.65;;
20557;SDS011;10437;48.156;11.530;2022-08-19T04:24:27;9.18;;;6.20;;
20557;SDS011;10437;48.156;11.530;2022-08-19T04:26:54;9.55;;;6.75;;
20557;SDS011;10437;48.156;11.530;2022-08-19T04:29:23;11.07;;;7.13;;
20557;SDS011;10437;48.156;11.530;2022-08-19T04:31:52;12.80;;;7.22;;
20557;SDS011;10437;48.156;11.530;2022-08-19T04:34:21;14.15;;;7.72;;
20557;SDS011;10437;48.156;11.530;2022-08-19T04:36:49;12.20;;;7.30;;
20557;SDS011;10437;48.156;11.530;2022-08-19T04:39:18;11.40;;;7.15;;
20557;SDS011;10437;48.156;11.530;2022-08-19T04:41:47;12.00;;;6.93;;
20557;SDS011;10437;48.156;11.530;2022-08-19T04:44:33;10.93;;;7.90;;
20557;SDS011;10437;48.156;11.530;2022-08-19T04:47:02;11.43;;;7.22;;
20557;SDS011;10437;48.156;11.530;2022-08-19T04:49:31;13.52;;;7.63;;
20557;SDS011;10437;48.156;11.530;2022-08-19T04:51:59;12.68;;;7.38;;
20557;SDS011;10437;48.156;11.530;2022-08-19T04:54:26;13.23;;;7.82;;
20557;SDS011;10437;48.156;11.530;2022-08-19T04:56:53;12.40;;;6.97;;
20557;SDS011;10437;48.156;11.530;2022-08-19T04:59:20;13.50;;;8.05;;
20557;SDS011;10437;48.156;11.530;2022-08-19T05:01:49;12.30;;;7.35;;
20557;SDS011;10437;48.156;11.530;2022-08-19T05:04:17;12.73;;;7.88;;
20557;SDS011;10437;48.156;11.530;2022-08-19T05:06:45;14.30;;;8.00;;
20557;SDS011;10437;48.156;11.530;2022-08-19T05:09:12;12.85;;;7.32;;
20557;SDS011;10437;48.156;11.530;2022-08-19T05:11:40;13.90;;;7.35;;
20557;SDS011;10437;48.156;11.530;2022-08-19T05:14:08;11.45;;;7.00;;
20557;SDS011;10437;48.156;11.530;2022-08-19T05:16:37;10.27;;;6.57;;
20557;SDS011;10437;48.156;11.530;2022-08-19T05:19:06;10.63;;;6.90;;
20557;SDS011;10437;48.156;11.530;2022-08-19T05:21:50;13.82;;;8.02;;
20557;SDS011;10437;48.156;11.530;2022-08-19T05:24:35;12.20;;;7.57;;
20557;SDS011;10437;48.156;11.530;2022-08-19T05:27:02;11.10;;;6.90;;
20557;SDS011;10437;48.156;11.530;2022-08-19T05:29:30;11.38;;;6.80;;
20557;SDS011;10437;48.156;11.530;2022-08-19T05:31:59;11.15;;;7.22;;
20557;SDS011;10437;48.156;11.530;2022-08-19T05:34:28;12.98;;;7.75;;
20557;SDS011;10437;48.156;11.530;2022-08-19T05:36:57;10.80;;;7.30;;
20557;SDS011;10437;48.156;11.530;2022-08-19T05:39:25;10.93;;;6.75;;
20557;SDS011;10437;48.156;11.530;2022-08-19T05:41:55;12.52;;;6.60;;
20557;SDS011;10437;48.156;11.530;2022-08-19T05:44:24;11.88;;;6.90;;
20557;SDS011;10437;48.156;11.530;2022-08-19T05:46:52;10.77;;;7.38;;
20557;SDS011;10437;48.156;11.530;2022-08-19T05:49:20;10.98;;;6.93;;
20557;SDS011;10437;48.156;11.530;2022-08-19T05:51:49;11.27;;;7.53;;
20557;SDS011;10437;48.156;11.530;2022-08-19T05:54:16;14.85;;;7.72;;
20557;SDS011;10437;48.156;11.530;2022-08-19T05:56:44;11.75;;;7.88;;
20557;SDS011;10437;48.156;11.530;2022-08-19T05:59:13;14.68;;;9.48;;
20557;SDS011;10437;48.156;11.530;2022-08-19T06:01:43;14.82;;;8.57;;
20557;SDS011;10437;48.156;11.530;2022-08-19T06:04:11;13.48;;;8.38;;
20557;SDS011;10437;48.156;11.530;2022-08-19T06:06:39;12.65;;;9.05;;
20557;SDS011;10437;48.156;11.530;2022-08-19T06:09:08;14.70;;;8.55;;
20557;SDS011;10437;48.156;11.530;2022-08-19T06:11:36;13.95;;;9.20;;
20557;SDS011;10437;48.156;11.530;2022-08-19T06:14:06;17.50;;;9.20;;
20557;SDS011;10437;48.156;11.530;2022-08-19T06:16:35;15.68;;;9.15;;
20557;SDS011;10437;48.156;11.530;2022-08-19T06:19:04;14.77;;;9.32;;
20557;SDS011;10437;48.156;11.530;2022-08-19T06:21:33;21.73;;;9.77;;
20557;SDS011;10437;48.156;11.530;2022-08-19T06:24:02;15.73;;;10.27;;
20557;SDS011;10437;48.156;11.530;2022-08-19T06:26:32;17.00;;;9.57;;
20557;SDS011;10437;48.156;11.530;2022-08-19T06:28:59;16.40;;;10.50;;
20557;SDS011;10437;48.156;11.530;2022-08-19T06:31:27;17.42;;;11.10;;
20557;SDS011;10437;48.156;11.530;2022-08-19T06:33:58;16.02;;;9.50;;
20557;SDS011;10437;48.156;11.530;2022-08-19T06:36:28;16.10;;;10.50;;
20557;SDS011;10437;48.156;11.530;2022-08-19T06:38:56;20.08;;;11.10;;
20557;SDS011;10437;48.156;11.530;2022-08-19T06:41:24;15.98;;;10.00;;
20557;SDS011;10437;48.156;11.530;2022-08-19T06:43:53;16.02;;;9.68;;
20557;SDS011;10437;48.156;11.530;2022-08-19T06:46:20;16.83;;;10.98;;
20557;SDS011;10437;48.156;11.530;2022-08-19T06:48:48;15.00;;;10.15;;
20557;SDS011;10437;48.156;11.530;2022-08-19T06:51:18;17.70;;;10.95;;
20557;SDS011;10437;48.156;11.530;2022-08-19T06:53:45;18.63;;;11.77;;
20557;SDS011;10437;48.156;11.530;2022-08-19T06:56:13;17.77;;;10.52;;
20557;SDS011;10437;48.156;11.530;2022-08-19T06:58:41;17.20;;;11.05;;
20557;SDS011;10437;48.156;11.530;2022-08-19T07:01:09;21.00;;;11.52;;
20557;SDS011;10437;48.156;11.530;2022-08-19T07:03:37;19.05;;;11.25;;
20557;SDS011;10437;48.156;11.530;2022-08-19T07:06:05;17.63;;;10.95;;
20557;SDS011;10437;48.156;11.530;2022-08-19T07:08:34;17.60;;;11.52;;
20557;SDS011;10437;48.156;11.530;2022-08-19T07:11:02;17.98;;;10.82;;
20557;SDS011;10437;48.156;11.530;2022-08-19T07:13:32;16.25;;;10.55;;
20557;SDS011;10437;48.156;11.530;2022-08-19T07:16:02;18.23;;;11.32;;
20557;SDS011;10437;48.156;11.530;2022-08-19T07:18:32;18.17;;;12.48;;
20557;SDS011;10437;48.156;11.530;2022-08-19T07:21:02;18.90;;;12.82;;
20557;SDS011;10437;48.156;11.530;2022-08-19T07:23:30;20.15;;;12.60;;
20557;SDS011;10437;48.156;11.530;2022-08-19T07:25:58;22.83;;;14.63;;
20557;SDS011;10437;48.156;11.530;2022-08-19T07:28:25;23.90;;;14.70;;
20557;SDS011;10437;48.156;11.530;2022-08-19T07:30:52;24.15;;;15.00;;
20557;SDS011;10437;48.156;11.530;2022-08-19T07:33:20;25.20;;;15.60;;
20557;SDS011;10437;48.156;11.530;2022-08-19T07:35:48;26.90;;;15.40;;
20557;SDS011;10437;48.156;11.530;2022-08-19T07:38:15;24.08;;;15.15;;
20557;SDS011;10437;48.156;11.530;2022-08-19T07:40:43;26.23;;;16.38;;
20557;SDS011;10437;48.156;11.530;2022-08-19T07:43:11;28.77;;;16.70;;
20557;SDS011;10437;48.156;11.530;2022-08-19T07:45:38;30.88;;;18.15;;
20557;SDS011;10437;48.156;11.530;2022-08-19T07:48:05;26.25;;;16.70;;
20557;SDS011;10437;48.156;11.530;2022-08-19T07:50:32;27.20;;;17.33;;
20557;SDS011;10437;48.156;11.530;2022-08-19T07:53:01;29.55;;;18.27;;
20557;SDS011;10437;48.156;11.530;2022-08-19T07:55:28;29.23;;;17.23;;
20557;SDS011;10437;48.156;11.530;2022-08-19T07:57:55;27.65;;;16.75;;
20557;SDS011;10437;48.156;11.530;2022-08-19T08:00:22;30.85;;;17.67;;
20557;SDS011;10437;48.156;11.530;2022-08-19T08:02:50;31.00;;;18.08;;
20557;SDS011;10437;48.156;11.530;2022-08-19T08:05:17;29.52;;;18.15;;
20557;SDS011;10437;48.156;11.530;2022-08-19T08:08:03;27.70;;;17.92;;
20557;SDS011;10437;48.156;11.530;2022-08-19T08:10:47;29.10;;;18.08;;
20557;SDS011;10437;48.156;11.530;2022-08-19T08:13:14;29.92;;;18.02;;
20557;SDS011;10437;48.156;11.530;2022-08-19T08:15:41;31.65;;;18.15;;
20557;SDS011;10437;48.156;11.530;2022-08-19T08:18:10;30.02;;;17.95;;
20557;SDS011;10437;48.156;11.530;2022-08-19T08:20:37;30.73;;;17.85;;
20557;SDS011;10437;48.156;11.530;2022-08-19T08:23:06;30.20;;;18.50;;
20557;SDS011;10437;48.156;11.530;2022-08-19T08:25:51;33.15;;;17.95;;
20557;SDS011;10437;48.156;11.530;2022-08-19T08:28:19;31.83;;;19.60;;
20557;SDS011;10437;48.156;11.530;2022-08-19T08:30:47;36.03;;;19.98;;
20557;SDS011;10437;48.156;11.530;2022-08-19T08:33:16;30.67;;;19.25;;
20557;SDS011;10437;48.156;11.530;2022-08-19T08:35:45;30.83;;;19.50;;
20557;SDS011;10437;48.156;11.530;2022-08-19T08:38:14;34.67;;;20.08;;
20557;SDS011;10437;48.156;11.530;2022-08-19T08:40:43;34.25;;;20.73;;
20557;SDS011;10437;48.156;11.530;2022-08-19T08:43:18;37.88;;;21.40;;
20557;SDS011;10437;48.156;11.530;2022-08-19T08:45:49;36.70;;;21.25;;
20557;SDS011;10437;48.156;11.530;2022-08-19T08:48:22;41.22;;;22.25;;
20557;SDS011;10437;48.156;11.530;2022-08-19T08:50:53;36.00;;;20.90;;
20557;SDS011;10437;48.156;11.530;2022-08-19T08:53:23;36.75;;;21.50;;
20557;SDS011;10437;48.156;11.530;2022-08-19T08:55:51;37.45;;;21.45;;
20557;SDS011;10437;48.156;11.530;2022-08-19T08:58:20;36.38;;;21.65;;
20557;SDS011;10437;48.156;11.530;2022-08-19T09:00:54;36.88;;;21.02;;
20557;SDS011;10437;48.156;11.530;2022-08-19T09:03:22;37.60;;;21.73;;
20557;SDS011;10437;48.156;11.530;2022-08-19T09:06:00;38.10;;;22.33;;
20557;SDS011;10437;48.156;11.530;2022-08-19T09:08:36;40.13;;;23.15;;
20557;SDS011;10437;48.156;11.530;2022-08-19T09:11:09;42.53;;;23.35;;
20557;SDS011;10437;48.156;11.530;2022-08-19T09:13:42;41.70;;;22.73;;
20557;SDS011;10437;48.156;11.530;2022-08-19T09:16:16;40.25;;;21.67;;
20557;SDS011;10437;48.156;11.530;2022-08-19T09:18:46;39.47;;;21.83;;
20557;SDS011;10437;48.156;11.530;2022-08-19T09:21:18;39.80;;;23.85;;
20557;SDS011;10437;48.156;11.530;2022-08-19T09:23:46;37.38;;;22.00;;
20557;SDS011;10437;48.156;11.530;2022-08-19T09:26:14;36.25;;;21.90;;
20557;SDS011;10437;48.156;11.530;2022-08-19T09:28:42;36.75;;;20.92;;
20557;SDS011;10437;48.156;11.530;2022-08-19T09:31:10;40.00;;;21.38;;
20557;SDS011;10437;48.156;11.530;2022-08-19T09:33:37;37.50;;;21.70;;
20557;SDS011;10437;48.156;11.530;2022-08-19T09:36:05;40.95;;;22.23;;
20557;SDS011;10437;48.156;11.530;2022-08-19T09:38:34;36.10;;;20.77;;
20557;SDS011;10437;48.156;11.530;2022-08-19T09:41:03;36.28;;;19.60;;
20557;SDS011;10437;48.156;11.530;2022-08-19T09:43:34;36.22;;;19.48;;
20557;SDS011;10437;48.156;11.530;2022-08-19T09:46:02;35.13;;;19.13;;
20557;SDS011;10437;48.156;11.530;2022-08-19T09:48:31;30.48;;;18.95;;
20557;SDS011;10437;48.156;11.530;2022-08-19T09:51:02;38.00;;;19.58;;
20557;SDS011;10437;48.156;11.530;2022-08-19T09:53:29;30.35;;;17.55;;
20557;SDS011;10437;48.156;11.530;2022-08-19T09:55:57;30.00;;;17.60;;
20557;SDS011;10437;48.156;11.530;2022-08-19T09:58:27;27.45;;;16.83;;
20557;SDS011;10437;48.156;11.530;2022-08-19T10:00:55;31.55;;;16.55;;
20557;SDS011;10437;48.156;11.530;2022-08-19T10:03:23;32.15;;;16.67;;
20557;SDS011;10437;48.156;11.530;2022-08-19T10:05:50;28.25;;;17.17;;
20557;SDS011;10437;48.156;11.530;2022-08-19T10:08:18;32.35;;;18.02;;
20557;SDS011;10437;48.156;11.530;2022-08-19T10:10:47;29.40;;;17.02;;
20557;SDS011;10437;48.156;11.530;2022-08-19T10:13:15;32.50;;;17.00;;
20557;SDS011;10437;48.156;11.530;2022-08-19T10:15:52;26.42;;;15.70;;
20557;SDS011;10437;48.156;11.530;2022-08-19T10:18:21;23.27;;;15.07;;
20557;SDS011;10437;48.156;11.530;2022-08-19T10:20:49;25.45;;;15.25;;
20557;SDS011;10437;48.156;11.530;2022-08-19T10:23:20;25.65;;;15.80;;
20557;SDS011;10437;48.156;11.530;2022-08-19T10:25:51;33.40;;;17.10;;
20557;SDS011;10437;48.156;11.530;2022-08-19T10:28:18;25.35;;;15.23;;
20557;SDS011;10437;48.156;11.530;2022-08-19T10:30:45;27.33;;;16.77;;
20557;SDS011;10437;48.156;11.530;2022-08-19T10:33:14;28.20;;;16.30;;
20557;SDS011;10437;48.156;11.530;2022-08-19T10:35:41;22.92;;;14.32;;
20557;SDS011;10437;48.156;11.530;2022-08-19T10:38:11;27.08;;;16.27;;
20557;SDS011;10437;48.156;11.530;2022-08-19T10:40:38;23.25;;;14.18;;
20557;SDS011;10437;48.156;11.530;2022-08-19T10:43:05;22.65;;;14.63;;
20557;SDS011;10437;48.156;11.530;2022-08-19T10:45:33;25.10;;;14.07;;
20557;SDS011;10437;48.156;11.530;2022-08-19T10:48:01;22.73;;;13.52;;
20557;SDS011;10437;48.156;11.530;2022-08-19T10:50:29;25.45;;;14.88;;
20557;SDS011;10437;48.156;11.530;2022-08-19T10:53:14;21.40;;;13.10;;
20557;SDS011;10437;48.156;11.530;2022-08-19T10:55:41;19.83;;;13.27;;
20557;SDS011;10437;48.156;11.530;2022-08-19T10:58:25;23.63;;;12.20;;
20557;SDS011;10437;48.156;11.530;2022-08-19T11:00:53;21.17;;;13.40;;
20557;SDS011;10437;48.156;11.530;2022-08-19T11:03:24;16.73;;;11.02;;
20557;SDS011;10437;48.156;11.530;2022-08-19T11:06:00;17.65;;;11.40;;
20557;SDS011;10437;48.156;11.530;2022-08-19T11:08:28;18.83;;;11.77;;
20557;SDS011;10437;48.156;11.530;2022-08-19T11:10:57;20.17;;;11.77;;
20557;SDS011;10437;48.156;11.530;2022-08-19T11:13:26;18.80;;;10.93;;
20557;SDS011;10437;48.156;11.530;2022-08-19T11:15:57;14.75;;;9.77;;
20557;SDS011;10437;48.156;11.530;2022-08-19T11:18:24;13.88;;;9.77;;
20557;SDS011;10437;48.156;11.530;2022-08-19T11:20:52;13.82;;;9.43;;
20557;SDS011;10437;48.156;11.530;2022-08-19T11:23:20;11.65;;;7.97;;
20557;SDS011;10437;48.156;11.530;2022-08-19T11:25:47;9.35;;;6.72;;
20557;SDS011;10437;48.156;11.530;2022-08-19T11:28:14;7.93;;;5.20;;
20557;SDS011;10437;48.156;11.530;2022-08-19T11:30:41;7.38;;;4.78;;
20557;SDS011;10437;48.156;11.530;2022-08-19T11:33:08;6.20;;;4.40;;
20557;SDS011;10437;48.156;11.530;2022-08-19T11:35:38;3.75;;;2.90;;
20557;SDS011;10437;48.156;11.530;2022-08-19T11:38:06;3.80;;;2.85;;
20557;SDS011;10437;48.156;11.530;2022-08-19T11:40:34;3.60;;;2.65;;
20557;SDS011;10437;48.156;11.530;2022-08-19T11:43:01;4.93;;;3.20;;
20557;SDS011;10437;48.156;11.530;2022-08-19T11:45:28;3.88;;;2.92;;
20557;SDS011;10437;48.156;11.530;2022-08-19T11:47:55;4.05;;;3.20;;
20557;SDS011;10437;48.156;11.530;2022-08-19T11:50:23;3.17;;;2.25;;
20557;SDS011;10437;48.156;11.530;2022-08-19T11:52:52;4.18;;;2.50;;
20557;SDS011;10437;48.156;11.530;2022-08-19T11:55:20;3.47;;;2.28;;
20557;SDS011;10437;48.156;11.530;2022-08-19T11:57:49;2.85;;;2.25;;
20557;SDS011;10437;48.156;11.530;2022-08-19T12:00:16;3.33;;;2.20;;
20557;SDS011;10437;48.156;11.530;2022-08-19T12:02:43;2.97;;;2.17;;
20557;SDS011;10437;48.156;11.530;2022-08-19T12:05:10;2.75;;;2.05;;
20557;SDS011;10437;48.156;11.530;2022-08-19T12:07:37;1.90;;;1.38;;
20557;SDS011;10437;48.156;11.530;2022-08-19T12:10:06;1.83;;;1.30;;
20557;SDS011;10437;48.156;11.530;2022-08-19T12:12:33;1.70;;;1.27;;
20557;SDS011;10437;48.156;11.530;2022-08-19T12:15:03;1.60;;;1.27;;
20557;SDS011;10437;48.156;11.530;2022-08-19T12:17:31;2.08;;;1.40;;
20557;SDS011;10437;48.156;11.530;2022-08-19T12:19:58;1.92;;;1.35;;
20557;SDS011;10437;48.156;11.530;2022-08-19T12:22:25;2.75;;;1.30;;
20557;SDS011;10437;48.156;11.530;2022-08-19T12:24:53;2.33;;;1.30;;
20557;SDS011;10437;48.156;11.530;2022-08-19T12:27:20;2.45;;;1.45;;
20557;SDS011;10437;48.156;11.530;2022-08-19T12:29:47;2.60;;;1.13;;
20557;SDS011;10437;48.156;11.530;2022-08-19T12:32:16;1.65;;;1.40;;
20557;SDS011;10437;48.156;11.530;2022-08-19T12:34:43;2.63;;;1.23;;
20557;SDS011;10437;48.156;11.530;2022-08-19T12:37:12;4.88;;;2.42;;
20557;SDS011;10437;48.156;11.530;2022-08-19T12:39:40;2.92;;;1.17;;
20557;SDS011;10437;48.156;11.530;2022-08-19T12:42:07;2.10;;;1.52;;
20557;SDS011;10437;48.156;11.530;2022-08-19T12:44:35;3.55;;;1.73;;
20557;SDS011;10437;48.156;11.530;2022-08-19T12:47:02;1.23;;;1.13;;
20557;SDS011;10437;48.156;11.530;2022-08-19T12:49:31;1.08;;;0.85;;
20557;SDS011;10437;48.156;11.530;2022-08-19T12:51:59;0.95;;;0.93;;
20557;SDS011;10437;48.156;11.530;2022-08-19T12:54:27;1.15;;;1.00;;
20557;SDS011;10437;48.156;11.530;2022-08-19T12:56:55;1.77;;;1.15;;
20557;SDS011;10437;48.156;11.530;2022-08-19T12:59:23;2.40;;;1.00;;
20557;SDS011;10437;48.156;11.530;2022-08-19T13:01:50;1.17;;;1.08;;
20557;SDS011;10437;48.156;11.530;2022-08-19T13:04:17;1.75;;;1.35;;
20557;SDS011;10437;48.156;11.530;2022-08-19T13:06:46;1.98;;;1.60;;
20557;SDS011;10437;48.156;11.530;2022-08-19T13:09:13;5.07;;;1.52;;
20557;SDS011;10437;48.156;11.530;2022-08-19T13:11:40;1.73;;;1.50;;
20557;SDS011;10437;48.156;11.530;2022-08-19T13:14:08;1.92;;;1.30;;
20557;SDS011;10437;48.156;11.530;2022-08-19T13:16:36;1.70;;;1.30;;
20557;SDS011;10437;48.156;11.530;2022-08-19T13:19:04;1.85;;;1.23;;
20557;SDS011;10437;48.156;11.530;2022-08-19T13:21:32;1.50;;;1.30;;
20557;SDS011;10437;48.156;11.530;2022-08-19T13:24:01;1.60;;;1.20;;
20557;SDS011;10437;48.156;11.530;2022-08-19T13:26:28;1.75;;;1.13;;
20557;SDS011;10437;48.156;11.530;2022-08-19T13:28:55;2.03;;;1.50;;
20557;SDS011;10437;48.156;11.530;2022-08-19T13:31:41;1.70;;;1.10;;
20557;SDS011;10437;48.156;11.530;2022-08-19T13:34:28;1.60;;;1.10;;
20557;SDS011;10437;48.156;11.530;2022-08-19T13:37:01;2.00;;;1.50;;
20557;SDS011;10437;48.156;11.530;2022-08-19T13:39:30;2.40;;;1.50;;
20557;SDS011;10437;48.156;11.530;2022-08-19T13:41:58;2.00;;;1.55;;
20557;SDS011;10437;48.156;11.530;2022-08-19T13:44:26;2.50;;;1.50;;
20557;SDS011;10437;48.156;11.530;2022-08-19T13:46:54;1.75;;;1.45;;
20557;SDS011;10437;48.156;11.530;2022-08-19T13:49:27;3.05;;;2.10;;
20557;SDS011;10437;48.156;11.530;2022-08-19T13:51:55;1.90;;;1.70;;
20557;SDS011;10437;48.156;11.530;2022-08-19T13:54:23;2.05;;;1.50;;
20557;SDS011;10437;48.156;11.530;2022-08-19T13:56:51;2.08;;;1.60;;
20557;SDS011;10437;48.156;11.530;2022-08-19T13:59:18;3.22;;;1.65;;
20557;SDS011;10437;48.156;11.530;2022-08-19T14:01:45;2.75;;;2.03;;
20557;SDS011;10437;48.156;11.530;2022-08-19T14:04:13;2.33;;;2.03;;
20557;SDS011;10437;48.156;11.530;2022-08-19T14:06:40;3.38;;;2.00;;
20557;SDS011;10437;48.156;11.530;2022-08-19T14:09:07;2.50;;;2.22;;
20557;SDS011;10437;48.156;11.530;2022-08-19T14:11:34;2.35;;;2.10;;
20557;SDS011;10437;48.156;11.530;2022-08-19T14:14:03;6.00;;;3.60;;
20557;SDS011;10437;48.156;11.530;2022-08-19T14:16:30;10.07;;;2.92;;
20557;SDS011;10437;48.156;11.530;2022-08-19T14:18:57;4.57;;;2.70;;
20557;SDS011;10437;48.156;11.530;2022-08-19T14:21:25;3.92;;;2.70;;
20557;SDS011;10437;48.156;11.530;2022-08-19T14:23:52;3.30;;;2.30;;
20557;SDS011;10437;48.156;11.530;2022-08-19T14:26:20;3.30;;;2.40;;
20557;SDS011;10437;48.156;11.530;2022-08-19T14:28:47;4.22;;;2.80;;
20557;SDS011;10437;48.156;11.530;2022-08-19T14:31:17;3.08;;;2.33;;
20557;SDS011;10437;48.156;11.530;2022-08-19T14:33:45;3.33;;;2.45;;
20557;SDS011;10437;48.156;11.530;2022-08-19T14:36:13;2.45;;;2.25;;